createdAt,value
2018-04-24T00:00:09.427Z,17.63
2018-04-24T00:01:09.417Z,17.68
2018-04-24T00:02:09.469Z,17.66
2018-04-24T00:03:09.440Z,17.71
2018-04-24T00:04:09.464Z,17.75
2018-04-24T00:05:09.467Z,17.65
2018-04-24T00:06:09.522Z,17.53
2018-04-24T00:07:09.517Z,17.75
2018-04-24T00:08:09.514Z,17.63
2018-04-24T00:09:09.531Z,17.54
2018-04-24T00:10:09.555Z,17.72
2018-04-24T00:11:09.577Z,17.65
2018-04-24T00:12:09.544Z,17.60
2018-04-24T00:13:09.634Z,17.50
2018-04-24T00:14:09.581Z,17.39
2018-04-24T00:15:09.588Z,17.41
2018-04-24T00:16:09.637Z,17.41
2018-04-24T00:17:09.634Z,17.39
2018-04-24T00:18:09.737Z,17.46
2018-04-24T00:19:09.702Z,17.41
2018-04-24T00:20:09.654Z,17.49
2018-04-24T00:21:09.684Z,17.50
2018-04-24T00:22:09.680Z,17.46
2018-04-24T00:23:09.696Z,17.28
2018-04-24T00:24:09.707Z,17.28
2018-04-24T00:25:09.760Z,17.24
2018-04-24T00:26:09.802Z,17.27
2018-04-24T00:27:09.740Z,17.12
2018-04-24T00:28:09.779Z,17.20
2018-04-24T00:29:09.763Z,17.17
2018-04-24T00:30:09.794Z,17.20
2018-04-24T00:31:09.779Z,17.24
2018-04-24T00:32:09.783Z,17.22
2018-04-24T00:33:09.817Z,17.13
2018-04-24T00:34:09.853Z,17.17
2018-04-24T00:35:09.818Z,17.12
2018-04-24T00:36:09.846Z,17.19
2018-04-24T00:37:09.863Z,17.09
2018-04-24T00:38:09.872Z,17.10
2018-04-24T00:39:09.932Z,17.02
2018-04-24T00:40:09.952Z,17.07
2018-04-24T00:41:09.895Z,16.92
2018-04-24T00:42:09.909Z,16.95
2018-04-24T00:43:09.960Z,16.97
2018-04-24T00:44:09.936Z,16.92
2018-04-24T00:45:09.975Z,17.04
2018-04-24T00:46:09.947Z,17.14
2018-04-24T00:47:09.960Z,17.07
2018-04-24T00:48:09.990Z,16.98
2018-04-24T00:49:09.992Z,17.07
2018-04-24T00:50:10.068Z,17.05
2018-04-24T00:51:10.027Z,17.07
2018-04-24T00:52:10.022Z,16.99
2018-04-24T00:53:10.029Z,16.92
2018-04-24T00:54:10.091Z,16.99
2018-04-24T00:55:10.109Z,16.97
2018-04-24T00:56:10.121Z,16.98
2018-04-24T00:57:10.123Z,16.97
2018-04-24T00:58:10.106Z,16.91
2018-04-24T00:59:10.121Z,16.82
2018-04-24T01:00:10.127Z,16.83
2018-04-24T01:01:10.210Z,16.82
2018-04-24T01:02:10.153Z,16.82
2018-04-24T01:03:10.152Z,16.73
2018-04-24T01:04:10.182Z,16.74
2018-04-24T01:05:10.187Z,16.69
2018-04-24T01:06:10.256Z,16.73
2018-04-24T01:07:10.196Z,16.69
2018-04-24T01:08:10.211Z,16.72
2018-04-24T01:09:10.229Z,16.66
2018-04-24T01:10:10.239Z,16.55
2018-04-24T01:11:10.280Z,16.61
2018-04-24T01:12:10.333Z,16.62
2018-04-24T01:13:10.275Z,16.65
2018-04-24T01:14:10.281Z,16.72
2018-04-24T01:15:10.298Z,16.73
2018-04-24T01:16:10.338Z,16.73
2018-04-24T01:17:10.321Z,16.62
2018-04-24T01:18:10.372Z,16.57
2018-04-24T01:19:10.353Z,16.59
2018-04-24T01:20:10.356Z,16.54
2018-04-24T01:21:10.358Z,16.57
2018-04-24T01:22:10.364Z,16.59
2018-04-24T01:23:10.434Z,16.58
2018-04-24T01:24:10.438Z,16.59
2018-04-24T01:25:10.415Z,16.62
2018-04-24T01:26:10.431Z,16.59
2018-04-24T01:27:10.438Z,16.49
2018-04-24T01:28:10.437Z,16.59
2018-04-24T01:29:10.495Z,16.55
2018-04-24T01:30:10.463Z,16.58
2018-04-24T01:31:10.476Z,16.64
2018-04-24T01:32:10.494Z,16.58
2018-04-24T01:33:10.532Z,16.64
2018-04-24T01:34:10.591Z,16.65
2018-04-24T01:35:10.537Z,16.59
2018-04-24T01:36:10.538Z,16.58
2018-04-24T01:37:10.544Z,16.47
2018-04-24T01:38:10.603Z,16.49
2018-04-24T01:39:10.571Z,16.43
2018-04-24T01:40:10.620Z,16.50
2018-04-24T01:41:10.597Z,16.55
2018-04-24T01:42:10.612Z,16.59
2018-04-24T01:43:10.622Z,16.57
2018-04-24T01:44:10.719Z,16.54
2018-04-24T01:45:10.665Z,16.44
2018-04-24T01:46:10.662Z,16.64
2018-04-24T01:47:10.666Z,16.55
2018-04-24T01:48:10.672Z,16.64
2018-04-24T01:49:10.766Z,16.54
2018-04-24T01:50:10.709Z,16.49
2018-04-24T01:51:10.726Z,16.57
2018-04-24T01:52:10.720Z,16.49
2018-04-24T01:53:10.743Z,16.59
2018-04-24T01:54:10.788Z,16.46
2018-04-24T01:55:10.760Z,16.43
2018-04-24T01:56:10.828Z,16.49
2018-04-24T01:57:10.776Z,16.57
2018-04-24T01:58:10.835Z,16.51
2018-04-24T01:59:10.819Z,16.37
2018-04-24T02:00:10.879Z,16.50
2018-04-24T02:01:10.873Z,16.54
2018-04-24T02:02:10.841Z,16.44
2018-04-24T02:03:10.850Z,16.61
2018-04-24T02:04:10.857Z,16.57
2018-04-24T02:05:10.868Z,16.51
2018-04-24T02:06:10.917Z,16.54
2018-04-24T02:07:10.913Z,16.55
2018-04-24T02:08:10.901Z,16.50
2018-04-24T02:09:10.925Z,16.58
2018-04-24T02:10:10.923Z,16.47
2018-04-24T02:11:11.027Z,16.51
2018-04-24T02:12:10.944Z,16.59
2018-04-24T02:13:10.967Z,16.57
2018-04-24T02:14:10.987Z,16.51
2018-04-24T02:15:10.995Z,16.47
2018-04-24T02:16:11.005Z,16.58
2018-04-24T02:17:11.035Z,16.61
2018-04-24T02:18:11.052Z,16.51
2018-04-24T02:19:11.018Z,16.61
2018-04-24T02:20:11.032Z,16.59
2018-04-24T02:21:11.062Z,16.57
2018-04-24T02:22:11.094Z,16.62
2018-04-24T02:23:11.113Z,16.61
2018-04-24T02:24:11.093Z,16.59
2018-04-24T02:25:11.118Z,16.64
2018-04-24T02:26:11.106Z,16.58
2018-04-24T02:27:11.111Z,16.58
2018-04-24T02:28:11.171Z,16.62
2018-04-24T02:29:11.137Z,16.59
2018-04-24T02:30:11.158Z,16.69
2018-04-24T02:31:11.197Z,16.64
2018-04-24T02:32:11.189Z,16.69
2018-04-24T02:33:11.198Z,16.59
2018-04-24T02:34:11.265Z,16.62
2018-04-24T02:35:11.223Z,16.68
2018-04-24T02:36:11.241Z,16.68
2018-04-24T02:37:11.238Z,16.59
2018-04-24T02:38:11.247Z,16.76
2018-04-24T02:39:11.263Z,16.66
2018-04-24T02:40:11.301Z,16.80
2018-04-24T02:41:11.277Z,16.69
2018-04-24T02:42:11.286Z,16.66
2018-04-24T02:43:11.308Z,16.72
2018-04-24T02:44:11.306Z,16.74
2018-04-24T02:45:11.363Z,16.74
2018-04-24T02:46:11.347Z,16.68
2018-04-24T02:47:11.356Z,16.61
2018-04-24T02:48:11.357Z,16.64
2018-04-24T02:49:11.444Z,16.59
2018-04-24T02:50:11.392Z,16.66
2018-04-24T02:51:11.449Z,16.59
2018-04-24T02:52:11.441Z,16.68
2018-04-24T02:53:11.421Z,16.69
2018-04-24T02:54:11.422Z,16.69
2018-04-24T02:55:11.488Z,16.69
2018-04-24T02:56:11.471Z,16.74
2018-04-24T02:57:11.475Z,16.64
2018-04-24T02:58:11.487Z,16.64
2018-04-24T02:59:11.489Z,16.62
2018-04-24T03:00:11.526Z,16.61
2018-04-24T03:01:11.519Z,16.61
2018-04-24T03:02:11.569Z,16.57
2018-04-24T03:03:11.536Z,16.54
2018-04-24T03:04:11.585Z,16.49
2018-04-24T03:05:11.583Z,16.57
2018-04-24T03:06:11.661Z,16.59
2018-04-24T03:07:11.593Z,16.62
2018-04-24T03:08:11.595Z,16.57
2018-04-24T03:09:11.619Z,16.51
2018-04-24T03:10:11.620Z,16.61
2018-04-24T03:11:11.671Z,16.57
2018-04-24T03:12:11.673Z,16.66
2018-04-24T03:13:11.703Z,16.50
2018-04-24T03:14:11.661Z,16.50
2018-04-24T03:15:11.674Z,16.61
2018-04-24T03:16:11.674Z,16.55
2018-04-24T03:17:11.739Z,16.55
2018-04-24T03:18:11.747Z,16.62
2018-04-24T03:19:11.711Z,16.62
2018-04-24T03:20:11.744Z,16.68
2018-04-24T03:21:11.745Z,16.64
2018-04-24T03:22:11.765Z,16.55
2018-04-24T03:23:11.824Z,16.58
2018-04-24T03:24:11.807Z,16.61
2018-04-24T03:25:11.790Z,16.62
2018-04-24T03:26:11.797Z,16.66
2018-04-24T03:27:11.808Z,16.64
2018-04-24T03:28:11.888Z,16.64
2018-04-24T03:29:11.844Z,16.58
2018-04-24T03:30:11.851Z,16.64
2018-04-24T03:31:11.872Z,16.64
2018-04-24T03:32:11.893Z,16.59
2018-04-24T03:33:11.877Z,16.51
2018-04-24T03:34:11.967Z,16.65
2018-04-24T03:35:11.922Z,16.58
2018-04-24T03:36:11.910Z,16.55
2018-04-24T03:37:11.914Z,16.62
2018-04-24T03:38:11.928Z,16.58
2018-04-24T03:39:12.000Z,16.59
2018-04-24T03:40:11.977Z,16.59
2018-04-24T03:41:11.991Z,16.66
2018-04-24T03:42:12.041Z,16.61
2018-04-24T03:43:12.000Z,16.62
2018-04-24T03:44:11.998Z,16.61
2018-04-24T03:45:12.017Z,16.65
2018-04-24T03:46:12.075Z,16.62
2018-04-24T03:47:12.036Z,16.72
2018-04-24T03:48:12.040Z,16.57
2018-04-24T03:49:12.059Z,16.66
2018-04-24T03:50:12.060Z,16.62
2018-04-24T03:51:12.116Z,16.68
2018-04-24T03:52:12.109Z,16.66
2018-04-24T03:53:12.125Z,16.64
2018-04-24T03:54:12.116Z,16.65
2018-04-24T03:55:12.129Z,16.66
2018-04-24T03:56:12.191Z,16.62
2018-04-24T03:57:12.222Z,16.62
2018-04-24T03:58:12.168Z,16.68
2018-04-24T03:59:12.168Z,16.72
2018-04-24T04:00:12.185Z,16.69
2018-04-24T04:01:12.250Z,16.74
2018-04-24T04:02:12.228Z,16.69
2018-04-24T04:03:12.242Z,16.80
2018-04-24T04:04:12.250Z,16.66
2018-04-24T04:05:12.248Z,16.86
2018-04-24T04:06:12.265Z,16.61
2018-04-24T04:07:12.271Z,16.82
2018-04-24T04:08:12.325Z,16.69
2018-04-24T04:09:12.287Z,16.83
2018-04-24T04:10:12.292Z,16.87
2018-04-24T04:11:12.310Z,16.83
2018-04-24T04:12:12.321Z,16.73
2018-04-24T04:13:12.376Z,16.74
2018-04-24T04:14:12.354Z,16.76
2018-04-24T04:15:12.387Z,16.92
2018-04-24T04:16:12.389Z,16.82
2018-04-24T04:17:12.451Z,16.83
2018-04-24T04:18:12.384Z,16.94
2018-04-24T04:19:12.407Z,16.89
2018-04-24T04:20:12.413Z,16.89
2018-04-24T04:21:12.424Z,16.94
2018-04-24T04:22:12.430Z,16.80
2018-04-24T04:23:12.512Z,16.79
2018-04-24T04:24:12.466Z,16.87
2018-04-24T04:25:12.468Z,16.89
2018-04-24T04:26:12.490Z,16.94
2018-04-24T04:27:12.492Z,17.01
2018-04-24T04:28:12.562Z,16.94
2018-04-24T04:29:12.564Z,17.05
2018-04-24T04:30:12.576Z,17.13
2018-04-24T04:31:12.544Z,16.92
2018-04-24T04:32:12.552Z,17.01
2018-04-24T04:33:12.567Z,16.98
2018-04-24T04:34:12.641Z,17.02
2018-04-24T04:35:12.594Z,17.02
2018-04-24T04:36:12.612Z,17.01
2018-04-24T04:37:12.634Z,17.05
2018-04-24T04:38:12.626Z,17.05
2018-04-24T04:39:12.682Z,17.07
2018-04-24T04:40:12.659Z,17.09
2018-04-24T04:41:12.669Z,17.01
2018-04-24T04:42:12.681Z,17.02
2018-04-24T04:43:12.683Z,17.02
2018-04-24T04:44:12.740Z,17.04
2018-04-24T04:45:12.766Z,16.86
2018-04-24T04:46:12.718Z,16.94
2018-04-24T04:47:12.732Z,16.92
2018-04-24T04:48:12.748Z,16.91
2018-04-24T04:49:12.796Z,16.97
2018-04-24T04:50:12.781Z,17.04
2018-04-24T04:51:12.813Z,16.97
2018-04-24T04:52:12.797Z,17.07
2018-04-24T04:53:12.818Z,17.10
2018-04-24T04:54:12.811Z,17.01
2018-04-24T04:55:12.833Z,17.07
2018-04-24T04:56:12.967Z,17.14
2018-04-24T04:57:12.860Z,17.19
2018-04-24T04:58:12.866Z,17.13
2018-04-24T04:59:12.887Z,17.22
2018-04-24T05:00:12.909Z,17.13
2018-04-24T05:01:12.897Z,17.19
2018-04-24T05:02:12.971Z,17.23
2018-04-24T05:03:12.941Z,17.27
2018-04-24T05:04:12.939Z,17.22
2018-04-24T05:05:12.997Z,17.23
2018-04-24T05:06:12.966Z,17.27
2018-04-24T05:07:13.007Z,17.28
2018-04-24T05:08:13.013Z,17.32
2018-04-24T05:09:13.034Z,17.27
2018-04-24T05:10:13.009Z,17.35
2018-04-24T05:11:13.017Z,17.30
2018-04-24T05:12:13.022Z,17.23
2018-04-24T05:13:13.075Z,17.22
2018-04-24T05:14:13.074Z,17.27
2018-04-24T05:15:13.062Z,17.37
2018-04-24T05:16:13.078Z,17.32
2018-04-24T05:17:13.092Z,17.34
2018-04-24T05:18:13.144Z,17.35
2018-04-24T05:19:13.164Z,17.34
2018-04-24T05:20:13.136Z,17.34
2018-04-24T05:21:13.134Z,17.32
2018-04-24T05:22:13.133Z,17.24
2018-04-24T05:23:13.145Z,17.28
2018-04-24T05:24:13.204Z,17.22
2018-04-24T05:25:13.212Z,17.28
2018-04-24T05:26:13.200Z,17.20
2018-04-24T05:27:13.255Z,17.28
2018-04-24T05:28:13.211Z,17.19
2018-04-24T05:29:13.259Z,17.28
2018-04-24T05:30:13.233Z,17.30
2018-04-24T05:31:13.258Z,17.23
2018-04-24T05:32:13.311Z,17.34
2018-04-24T05:33:13.262Z,17.39
2018-04-24T05:34:13.284Z,17.22
2018-04-24T05:35:13.293Z,17.22
2018-04-24T05:36:13.325Z,17.24
2018-04-24T05:37:13.344Z,17.27
2018-04-24T05:38:13.335Z,17.28
2018-04-24T05:39:13.334Z,17.27
2018-04-24T05:40:13.375Z,17.34
2018-04-24T05:41:13.371Z,17.34
2018-04-24T05:42:13.433Z,17.32
2018-04-24T05:43:13.389Z,17.32
2018-04-24T05:44:13.391Z,17.37
2018-04-24T05:45:13.479Z,17.34
2018-04-24T05:46:13.426Z,17.34
2018-04-24T05:47:13.464Z,17.32
2018-04-24T05:48:13.440Z,17.38
2018-04-24T05:49:13.461Z,17.37
2018-04-24T05:50:13.499Z,17.49
2018-04-24T05:51:13.501Z,17.38
2018-04-24T05:52:13.494Z,17.57
2018-04-24T05:53:13.548Z,17.53
2018-04-24T05:54:13.553Z,17.56
2018-04-24T05:55:13.516Z,17.60
2018-04-24T05:56:13.569Z,17.57
2018-04-24T05:57:13.598Z,17.60
2018-04-24T05:58:13.586Z,17.65
2018-04-24T05:59:13.590Z,17.65
2018-04-24T06:00:13.591Z,17.73
2018-04-24T06:01:13.605Z,17.59
2018-04-24T06:02:13.724Z,17.71
2018-04-24T06:03:13.620Z,17.65
2018-04-24T06:04:13.636Z,17.63
2018-04-24T06:05:13.647Z,17.71
2018-04-24T06:06:13.651Z,17.69
2018-04-24T06:07:13.701Z,17.71
2018-04-24T06:08:13.743Z,17.71
2018-04-24T06:09:13.719Z,17.72
2018-04-24T06:10:13.701Z,17.75
2018-04-24T06:11:13.833Z,17.78
2018-04-24T06:12:14.002Z,17.72
2018-04-24T06:13:13.859Z,17.76
2018-04-24T06:14:13.751Z,17.73
2018-04-24T06:15:13.826Z,17.75
2018-04-24T06:16:13.800Z,17.75
2018-04-24T06:17:13.796Z,17.78
2018-04-24T06:18:13.838Z,17.79
2018-04-24T06:19:13.819Z,17.80
2018-04-24T06:20:13.849Z,17.80
2018-04-24T06:21:13.851Z,17.78
2018-04-24T06:22:13.846Z,17.80
2018-04-24T06:23:14.153Z,17.86
2018-04-24T06:24:13.889Z,17.86
2018-04-24T06:25:13.878Z,17.82
2018-04-24T06:26:13.915Z,17.88
2018-04-24T06:27:13.898Z,17.82
2018-04-24T06:28:13.931Z,18.00
2018-04-24T06:29:13.967Z,17.97
2018-04-24T06:30:13.944Z,18.03
2018-04-24T06:31:13.977Z,18.09
2018-04-24T06:32:14.006Z,18.00
2018-04-24T06:33:14.028Z,17.94
2018-04-24T06:34:14.043Z,18.05
2018-04-24T06:35:14.022Z,18.08
2018-04-24T06:36:14.026Z,18.05
2018-04-24T06:37:14.032Z,18.08
2018-04-24T06:38:14.068Z,18.16
2018-04-24T06:39:14.077Z,18.18
2018-04-24T06:40:14.069Z,18.12
2018-04-24T06:41:14.079Z,18.23
2018-04-24T06:42:14.158Z,18.30
2018-04-24T06:43:14.110Z,18.26
2018-04-24T06:44:14.176Z,18.30
2018-04-24T06:45:14.129Z,18.45
2018-04-24T06:46:14.177Z,18.43
2018-04-24T06:47:14.161Z,18.45
2018-04-24T06:48:14.190Z,18.45
2018-04-24T06:49:14.171Z,18.43
2018-04-24T06:50:14.256Z,18.52
2018-04-24T06:51:14.211Z,18.63
2018-04-24T06:52:14.228Z,18.64
2018-04-24T06:53:14.258Z,18.57
2018-04-24T06:54:14.232Z,18.64
2018-04-24T06:55:14.290Z,18.68
2018-04-24T06:56:14.255Z,18.71
2018-04-24T06:57:14.300Z,18.70
2018-04-24T06:58:14.289Z,18.81
2018-04-24T06:59:14.321Z,18.81
2018-04-24T07:00:14.355Z,18.74
2018-04-24T07:01:14.387Z,18.76
2018-04-24T07:02:14.331Z,18.85
2018-04-24T07:03:14.349Z,18.76
2018-04-24T07:04:14.367Z,18.82
2018-04-24T07:05:14.385Z,18.83
2018-04-24T07:06:14.445Z,18.83
2018-04-24T07:07:14.419Z,18.88
2018-04-24T07:08:14.426Z,18.92
2018-04-24T07:09:14.415Z,18.88
2018-04-24T07:10:14.446Z,19.00
2018-04-24T07:11:14.498Z,19.01
2018-04-24T07:12:14.464Z,19.00
2018-04-24T07:13:14.494Z,19.04
2018-04-24T07:14:14.508Z,19.04
2018-04-24T07:15:14.542Z,18.98
2018-04-24T07:16:14.579Z,19.08
2018-04-24T07:17:14.543Z,19.05
2018-04-24T07:18:14.575Z,19.11
2018-04-24T07:19:14.577Z,19.26
2018-04-24T07:20:14.567Z,19.24
2018-04-24T07:21:14.567Z,19.24
2018-04-24T07:22:14.663Z,19.24
2018-04-24T07:23:14.653Z,19.19
2018-04-24T07:24:14.623Z,19.24
2018-04-24T07:25:14.635Z,19.26
2018-04-24T07:26:14.655Z,19.39
2018-04-24T07:27:14.735Z,19.23
2018-04-24T07:28:14.732Z,19.34
2018-04-24T07:29:14.720Z,19.34
2018-04-24T07:30:14.710Z,19.37
2018-04-24T07:31:14.741Z,19.32
2018-04-24T07:32:14.721Z,19.37
2018-04-24T07:33:14.742Z,19.35
2018-04-24T07:34:14.819Z,19.34
2018-04-24T07:35:14.751Z,19.35
2018-04-24T07:36:14.782Z,19.37
2018-04-24T07:37:14.785Z,19.37
2018-04-24T07:38:14.928Z,19.42
2018-04-24T07:39:14.835Z,19.52
2018-04-24T07:40:14.875Z,19.45
2018-04-24T07:41:14.852Z,19.52
2018-04-24T07:42:14.854Z,19.45
2018-04-24T07:43:14.855Z,19.44
2018-04-24T07:44:14.879Z,19.59
2018-04-24T07:45:14.922Z,19.52
2018-04-24T07:46:14.923Z,19.62
2018-04-24T07:47:14.923Z,19.59
2018-04-24T07:48:14.960Z,19.60
2018-04-24T07:49:14.952Z,19.60
2018-04-24T07:50:14.987Z,19.64
2018-04-24T07:51:15.005Z,19.62
2018-04-24T07:52:14.999Z,19.63
2018-04-24T07:53:15.024Z,19.56
2018-04-24T07:54:15.080Z,19.56
2018-04-24T07:55:15.022Z,19.59
2018-04-24T07:56:15.081Z,19.57
2018-04-24T07:57:15.164Z,19.62
2018-04-24T07:58:15.062Z,19.64
2018-04-24T07:59:15.068Z,19.63
2018-04-24T08:00:15.089Z,19.64
2018-04-24T08:01:15.145Z,19.72
2018-04-24T08:02:15.149Z,19.67
2018-04-24T08:03:15.134Z,19.74
2018-04-24T08:04:15.131Z,19.70
2018-04-24T08:05:15.164Z,19.72
2018-04-24T08:06:15.175Z,19.67
2018-04-24T08:07:15.213Z,19.67
2018-04-24T08:08:15.200Z,19.75
2018-04-24T08:09:15.191Z,19.79
2018-04-24T08:10:15.223Z,19.70
2018-04-24T08:11:15.215Z,19.71
2018-04-24T08:12:15.279Z,19.64
2018-04-24T08:13:15.390Z,19.75
2018-04-24T08:14:15.476Z,19.82
2018-04-24T08:15:15.285Z,19.82
2018-04-24T08:16:15.284Z,19.84
2018-04-24T08:17:15.354Z,19.89
2018-04-24T08:18:15.345Z,19.90
2018-04-24T08:19:15.317Z,19.92
2018-04-24T08:20:15.364Z,19.92
2018-04-24T08:21:15.366Z,19.92
2018-04-24T08:22:15.433Z,19.94
2018-04-24T08:23:15.444Z,20.02
2018-04-24T08:24:15.443Z,20.00
2018-04-24T08:25:15.426Z,19.97
2018-04-24T08:26:15.414Z,20.03
2018-04-24T08:27:15.441Z,20.08
2018-04-24T08:28:15.538Z,20.08
2018-04-24T08:29:15.471Z,20.12
2018-04-24T08:30:15.481Z,20.14
2018-04-24T08:31:15.488Z,20.14
2018-04-24T08:32:15.499Z,20.07
2018-04-24T08:33:15.566Z,20.15
2018-04-24T08:34:15.555Z,20.19
2018-04-24T08:35:15.540Z,20.22
2018-04-24T08:36:15.554Z,20.21
2018-04-24T08:37:15.564Z,20.30
2018-04-24T08:38:15.643Z,20.37
2018-04-24T08:39:15.601Z,20.32
2018-04-24T08:40:15.621Z,20.37
2018-04-24T08:41:15.735Z,20.40
2018-04-24T08:42:15.633Z,20.33
2018-04-24T08:43:15.669Z,20.27
2018-04-24T08:44:15.697Z,20.32
2018-04-24T08:45:15.719Z,20.36
2018-04-24T08:46:15.786Z,20.37
2018-04-24T08:47:15.707Z,20.42
2018-04-24T08:48:15.753Z,20.48
2018-04-24T08:49:15.774Z,20.52
2018-04-24T08:50:15.790Z,20.52
2018-04-24T08:51:15.785Z,20.60
2018-04-24T08:52:15.776Z,20.67
2018-04-24T08:53:15.787Z,20.70
2018-04-24T08:54:15.806Z,20.58
2018-04-24T08:55:15.864Z,20.78
2018-04-24T08:56:15.826Z,20.82
2018-04-24T08:57:15.827Z,20.83
2018-04-24T08:58:15.900Z,20.85
2018-04-24T08:59:15.938Z,20.80
2018-04-24T09:00:15.878Z,20.93
2018-04-24T09:01:15.900Z,20.77
2018-04-24T09:02:15.921Z,20.77
2018-04-24T09:03:16.012Z,20.90
2018-04-24T09:04:15.924Z,20.90
2018-04-24T09:05:15.959Z,20.93
2018-04-24T09:06:15.986Z,20.95
2018-04-24T09:07:16.093Z,21.01
2018-04-24T09:08:16.084Z,20.88
2018-04-24T09:09:16.068Z,20.90
2018-04-24T09:10:16.016Z,21.00
2018-04-24T09:11:16.025Z,20.95
2018-04-24T09:12:16.050Z,20.90
2018-04-24T09:13:16.128Z,20.85
2018-04-24T09:14:16.065Z,20.88
2018-04-24T09:15:16.093Z,20.93
2018-04-24T09:16:16.137Z,20.88
2018-04-24T09:17:16.126Z,20.88
2018-04-24T09:18:16.163Z,20.93
2018-04-24T09:19:16.142Z,20.95
2018-04-24T09:20:16.170Z,20.86
2018-04-24T09:21:16.240Z,20.92
2018-04-24T09:22:16.175Z,20.90
2018-04-24T09:23:16.256Z,20.80
2018-04-24T09:24:16.215Z,20.75
2018-04-24T09:25:16.242Z,20.75
2018-04-24T09:26:16.229Z,20.78
2018-04-24T09:27:16.276Z,20.85
2018-04-24T09:28:16.297Z,20.75
2018-04-24T09:29:16.296Z,20.85
2018-04-24T09:30:16.306Z,20.82
2018-04-24T09:31:16.308Z,20.83
2018-04-24T09:32:16.324Z,20.80
2018-04-24T09:33:16.462Z,20.64
2018-04-24T09:34:16.398Z,20.70
2018-04-24T09:35:16.372Z,20.59
2018-04-24T09:36:16.378Z,20.63
2018-04-24T09:37:16.388Z,20.48
2018-04-24T09:38:16.403Z,20.48
2018-04-24T09:39:16.467Z,20.48
2018-04-24T09:40:16.428Z,20.49
2018-04-24T09:41:16.439Z,20.52
2018-04-24T09:42:16.444Z,20.40
2018-04-24T09:43:16.489Z,20.39
2018-04-24T09:44:16.545Z,20.44
2018-04-24T09:45:16.491Z,20.32
2018-04-24T09:46:16.543Z,20.40
2018-04-24T09:47:16.550Z,20.34
2018-04-24T09:48:16.536Z,20.21
2018-04-24T09:49:16.621Z,20.19
2018-04-24T09:50:16.577Z,20.22
2018-04-24T09:51:16.637Z,20.19
2018-04-24T09:52:16.606Z,20.17
2018-04-24T09:53:16.608Z,20.24
2018-04-24T09:54:16.669Z,20.22
2018-04-24T09:55:16.627Z,20.11
2018-04-24T09:56:16.669Z,20.17
2018-04-24T09:57:16.700Z,20.19
2018-04-24T09:58:16.682Z,20.14
2018-04-24T09:59:16.704Z,20.21
2018-04-24T10:00:16.694Z,20.33
2018-04-24T10:01:16.714Z,20.32
2018-04-24T10:02:16.885Z,20.32
2018-04-24T10:03:16.746Z,20.33
2018-04-24T10:04:16.852Z,20.32
2018-04-24T10:05:16.927Z,20.34
2018-04-24T10:06:16.781Z,20.42
2018-04-24T10:07:16.794Z,20.49
2018-04-24T10:08:16.820Z,20.44
2018-04-24T10:09:16.867Z,20.48
2018-04-24T10:10:16.882Z,20.49
2018-04-24T10:11:16.911Z,20.55
2018-04-24T10:12:16.855Z,20.55
2018-04-24T10:13:16.886Z,20.56
2018-04-24T10:14:16.898Z,20.55
2018-04-24T10:15:16.949Z,20.58
2018-04-24T10:16:16.911Z,20.67
2018-04-24T10:17:16.940Z,20.58
2018-04-24T10:18:16.949Z,20.74
2018-04-24T10:19:16.983Z,20.75
2018-04-24T10:20:17.015Z,20.77
2018-04-24T10:21:17.009Z,20.82
2018-04-24T10:22:16.999Z,20.74
2018-04-24T10:23:17.014Z,20.71
2018-04-24T10:24:17.071Z,20.70
2018-04-24T10:25:17.035Z,20.70
2018-04-24T10:26:17.067Z,20.53
2018-04-24T10:27:17.122Z,20.56
2018-04-24T10:28:17.107Z,20.58
2018-04-24T10:29:17.136Z,20.64
2018-04-24T10:30:17.120Z,20.63
2018-04-24T10:31:17.152Z,20.60
2018-04-24T10:32:17.147Z,20.58
2018-04-24T10:33:17.189Z,20.66
2018-04-24T10:34:17.171Z,20.60
2018-04-24T10:35:17.221Z,20.59
2018-04-24T10:36:17.235Z,20.59
2018-04-24T10:37:17.234Z,20.66
2018-04-24T10:38:17.210Z,20.71
2018-04-24T10:39:17.241Z,20.64
2018-04-24T10:40:17.239Z,20.70
2018-04-24T10:41:17.291Z,20.59
2018-04-24T10:42:17.279Z,20.53
2018-04-24T10:43:17.297Z,20.64
2018-04-24T10:44:17.296Z,20.63
2018-04-24T10:45:17.305Z,20.70
2018-04-24T10:46:17.401Z,20.67
2018-04-24T10:47:17.371Z,20.70
2018-04-24T10:48:17.350Z,20.73
2018-04-24T10:49:17.391Z,20.67
2018-04-24T10:50:17.399Z,20.68
2018-04-24T10:51:17.509Z,20.66
2018-04-24T10:52:17.458Z,20.67
2018-04-24T10:53:17.464Z,20.66
2018-04-24T10:54:17.453Z,20.71
2018-04-24T10:55:17.522Z,20.71
2018-04-24T10:56:17.473Z,20.75
2018-04-24T10:57:17.479Z,20.93
2018-04-24T10:58:17.559Z,20.92
2018-04-24T10:59:17.620Z,20.95
2018-04-24T11:00:17.573Z,20.95
2018-04-24T11:01:17.541Z,20.98
2018-04-24T11:02:17.572Z,20.88
2018-04-24T11:03:17.576Z,20.88
2018-04-24T11:04:17.615Z,20.83
2018-04-24T11:05:17.607Z,20.88
2018-04-24T11:06:17.609Z,20.83
2018-04-24T11:07:17.621Z,20.86
2018-04-24T11:08:17.636Z,20.74
2018-04-24T11:09:17.701Z,20.83
2018-04-24T13:58:43.696Z,18.42
2018-04-24T13:59:43.681Z,18.41
2018-04-24T14:00:43.674Z,18.30
2018-04-24T14:01:43.685Z,18.48
2018-04-24T14:02:43.698Z,18.43
2018-04-24T14:03:43.753Z,18.41
2018-04-24T14:04:43.739Z,18.42
2018-04-24T14:05:43.782Z,18.39
2018-04-24T14:10:08.635Z,18.46
2018-04-24T14:11:01.573Z,18.53
2018-04-24T14:13:45.391Z,18.64
2018-04-24T14:14:45.394Z,18.67
2018-04-24T14:15:45.459Z,18.64
2018-04-24T14:16:45.429Z,18.70
2018-04-24T14:17:45.436Z,18.63
2018-04-24T14:18:45.456Z,18.60
2018-04-24T14:19:45.446Z,18.63
2018-04-24T14:20:45.514Z,18.64
2018-04-24T14:21:45.488Z,18.66
2018-04-24T14:22:45.493Z,18.63
2018-04-24T14:23:45.522Z,18.61
2018-04-24T14:24:45.527Z,18.70
2018-04-24T14:25:45.577Z,18.79
2018-04-24T14:26:45.550Z,18.78
2018-04-24T14:27:45.563Z,18.76
2018-04-24T14:28:45.572Z,18.81
2018-04-24T14:29:45.591Z,18.88
2018-04-24T14:30:45.629Z,18.92
2018-04-24T14:31:45.596Z,18.97
2018-04-24T14:32:45.604Z,19.07
2018-04-24T14:33:45.640Z,19.09
2018-04-24T14:34:45.639Z,19.16
2018-04-24T14:35:45.685Z,19.20
2018-04-24T14:36:45.687Z,19.30
2018-04-24T14:37:45.674Z,19.20
2018-04-24T14:38:45.686Z,19.30
2018-04-24T14:39:45.716Z,19.29
2018-04-24T14:40:45.777Z,19.35
2018-04-24T14:41:45.744Z,19.30
2018-04-24T14:42:45.776Z,19.30
2018-04-24T14:43:45.756Z,19.35
2018-04-24T14:44:45.800Z,19.32
2018-04-24T14:45:45.839Z,19.42
2018-04-24T14:46:45.854Z,19.47
2018-04-24T14:47:45.826Z,19.44
2018-04-24T14:48:45.863Z,19.47
2018-04-24T14:49:45.842Z,19.56
2018-04-24T14:50:45.858Z,19.64
2018-04-24T14:51:45.969Z,19.56
2018-04-24T14:52:45.943Z,19.63
2018-04-24T14:53:45.894Z,19.70
2018-04-24T14:54:45.895Z,19.64
2018-04-24T14:55:45.931Z,19.67
2018-04-24T14:56:45.921Z,19.70
2018-04-24T14:57:45.965Z,19.66
2018-04-24T14:58:45.947Z,19.63
2018-04-24T14:59:45.972Z,19.62
2018-04-24T15:00:46.036Z,19.71
2018-04-24T15:01:46.000Z,19.59
2018-04-24T15:02:46.020Z,19.70
2018-04-24T15:03:46.025Z,19.66
2018-04-24T15:04:46.037Z,19.79
2018-04-24T15:05:46.071Z,19.71
2018-04-24T15:06:46.125Z,19.77
2018-04-24T15:07:46.076Z,19.71
2018-04-24T15:08:46.095Z,19.77
2018-04-24T15:09:46.101Z,19.70
2018-04-24T15:10:46.115Z,19.63
2018-04-24T15:11:46.176Z,19.62
2018-04-24T15:12:46.144Z,19.56
2018-04-24T15:13:46.172Z,19.64
2018-04-24T15:14:46.190Z,19.67
2018-04-24T15:15:46.226Z,19.59
2018-04-24T15:16:46.228Z,19.70
2018-04-24T15:17:46.199Z,19.75
2018-04-24T15:18:46.221Z,19.71
2018-04-24T15:19:46.227Z,19.63
2018-04-24T15:20:46.288Z,19.55
2018-04-24T15:21:46.248Z,19.59
2018-04-24T15:22:46.271Z,19.62
2018-04-24T15:23:46.275Z,19.60
2018-04-24T15:24:46.306Z,19.56
2018-04-24T15:25:46.357Z,19.53
2018-04-24T15:26:46.331Z,19.41
2018-04-24T15:27:46.339Z,19.37
2018-04-24T15:28:46.380Z,19.42
2018-04-24T15:29:46.364Z,19.41
2018-04-24T15:30:46.413Z,19.39
2018-04-24T15:31:46.379Z,19.34
2018-04-24T15:32:46.393Z,19.34
2018-04-24T15:33:46.425Z,19.37
2018-04-24T15:34:46.439Z,19.47
2018-04-24T15:35:46.499Z,19.39
2018-04-24T15:36:46.459Z,19.38
2018-04-24T15:37:46.481Z,19.41
2018-04-24T15:38:46.473Z,19.32
2018-04-24T15:39:46.513Z,19.27
2018-04-24T15:40:46.540Z,19.17
2018-04-24T15:41:46.530Z,19.23
2018-04-24T15:42:46.542Z,19.24
2018-04-24T15:43:46.572Z,19.16
2018-04-24T15:44:46.566Z,19.15
2018-04-24T15:45:46.617Z,19.16